METAR Data
IDs: Format: Raw Decoded Include TAF

Data at: 1350 UTC 26 Feb 2021

EGCC 261320Z AUTO 29007KT 9999 BKN029 BKN035 09/03 Q1037